createdAt,value
2019-02-19T00:00:46.169Z,97637.42
2019-02-19T00:03:13.576Z,97645.19
2019-02-19T00:05:41.010Z,97650.62
2019-02-19T00:08:08.413Z,97651.55
2019-02-19T00:10:36.008Z,97651.23
2019-02-19T00:13:03.393Z,97647.80
2019-02-19T00:15:30.803Z,97648.84
2019-02-19T00:17:58.219Z,97651.09
2019-02-19T00:20:25.629Z,97648.11
2019-02-19T00:22:53.114Z,97653.86
2019-02-19T00:25:20.528Z,97649.52
2019-02-19T00:27:48.204Z,97657.00
2019-02-19T00:30:15.584Z,97659.59
2019-02-19T00:32:42.990Z,97655.98
2019-02-19T00:35:10.387Z,97659.80
2019-02-19T00:37:37.805Z,97660.00
2019-02-19T00:40:05.246Z,97653.91
2019-02-19T00:42:32.662Z,97652.89
2019-02-19T00:45:00.097Z,97660.21
2019-02-19T00:47:27.529Z,97658.24
2019-02-19T00:49:54.914Z,97663.19
2019-02-19T00:52:22.319Z,97659.19
2019-02-19T00:54:49.714Z,97662.23
2019-02-19T00:57:17.784Z,97658.59
2019-02-19T00:59:45.194Z,97658.28
2019-02-19T01:02:12.688Z,97655.52
2019-02-19T01:04:40.147Z,97652.91
2019-02-19T01:07:07.559Z,97662.89
2019-02-19T01:09:35.080Z,97663.61
2019-02-19T01:12:02.728Z,97665.58
2019-02-19T01:14:30.098Z,97665.98
2019-02-19T01:16:57.495Z,97659.06
2019-02-19T01:19:24.904Z,97664.30
2019-02-19T01:21:52.314Z,97668.02
2019-02-19T01:24:19.802Z,97671.84
2019-02-19T01:26:47.175Z,97664.54
2019-02-19T01:29:14.614Z,97659.41
2019-02-19T01:31:41.995Z,97663.55
2019-02-19T01:34:09.547Z,97663.56
2019-02-19T01:36:37.034Z,97665.47
2019-02-19T01:39:04.729Z,97662.81
2019-02-19T01:41:32.414Z,97666.21
2019-02-19T01:43:59.807Z,97661.33
2019-02-19T01:46:27.227Z,97663.42
2019-02-19T01:48:54.626Z,97660.11
2019-02-19T01:51:22.038Z,97649.64
2019-02-19T01:53:49.430Z,97645.86
2019-02-19T01:56:16.831Z,97645.53
2019-02-19T01:58:44.225Z,97649.17
2019-02-19T02:01:11.658Z,97642.14
2019-02-19T02:03:39.116Z,97640.33
2019-02-19T02:06:06.502Z,97645.67
2019-02-19T02:08:34.244Z,97643.72
2019-02-19T02:11:01.661Z,97643.58
2019-02-19T02:13:29.112Z,97635.88
2019-02-19T02:15:56.506Z,97629.91
2019-02-19T02:18:23.907Z,97634.23
2019-02-19T02:20:51.330Z,97633.81
2019-02-19T02:23:18.714Z,97637.38
2019-02-19T02:25:46.247Z,97641.15
2019-02-19T02:28:13.631Z,97634.34
2019-02-19T02:30:41.058Z,97646.05
2019-02-19T02:33:08.629Z,97630.51
2019-02-19T02:35:36.003Z,97630.13
2019-02-19T02:38:03.623Z,97634.17
2019-02-19T02:40:31.008Z,97638.08
2019-02-19T02:42:58.408Z,97636.69
2019-02-19T02:45:25.864Z,97636.41
2019-02-19T02:47:53.262Z,97634.39
2019-02-19T02:50:20.714Z,97636.88
2019-02-19T02:52:48.136Z,97635.34
2019-02-19T02:55:15.546Z,97636.98
2019-02-19T02:57:42.967Z,97645.80
2019-02-19T03:00:10.441Z,97641.52
2019-02-19T03:02:37.966Z,97640.63
2019-02-19T03:05:05.363Z,97638.63
2019-02-19T03:07:33.693Z,97637.06
2019-02-19T03:10:01.159Z,97640.84
2019-02-19T03:12:28.657Z,97642.44
2019-02-19T03:14:56.115Z,97639.46
2019-02-19T03:17:24.627Z,97642.31
2019-02-19T03:19:52.051Z,97640.72
2019-02-19T03:22:19.601Z,97641.05
2019-02-19T03:24:47.010Z,97636.61
2019-02-19T03:27:14.464Z,97626.55
2019-02-19T03:29:41.864Z,97626.39
2019-02-19T03:32:09.264Z,97624.28
2019-02-19T03:34:36.674Z,97630.28
2019-02-19T03:37:04.205Z,97626.19
2019-02-19T03:39:31.615Z,97635.85
2019-02-19T03:41:59.019Z,97638.49
2019-02-19T03:44:26.421Z,97635.86
2019-02-19T03:46:53.840Z,97635.71
2019-02-19T03:49:21.277Z,97646.19
2019-02-19T03:51:48.746Z,97637.40
2019-02-19T03:54:16.183Z,97640.84
2019-02-19T03:56:43.967Z,97643.91
2019-02-19T03:59:11.370Z,97648.30
2019-02-19T04:01:38.754Z,97647.22
2019-02-19T04:04:06.174Z,97645.16
2019-02-19T04:06:33.610Z,97646.88
2019-02-19T04:09:01.082Z,97655.52
2019-02-19T04:11:28.498Z,97660.87
2019-02-19T04:13:55.907Z,97657.55
2019-02-19T04:16:23.463Z,97659.56
2019-02-19T04:18:50.927Z,97659.67
2019-02-19T04:21:18.380Z,97660.66
2019-02-19T04:23:45.818Z,97662.53
2019-02-19T04:26:14.078Z,97665.64
2019-02-19T04:28:40.668Z,97659.11
2019-02-19T04:31:08.089Z,97660.59
2019-02-19T04:33:35.519Z,97660.87
2019-02-19T04:36:02.919Z,97655.59
2019-02-19T04:38:30.331Z,97661.89
2019-02-19T04:40:57.843Z,97656.50
2019-02-19T04:43:25.265Z,97661.53
2019-02-19T04:45:52.695Z,97658.81
2019-02-19T04:48:20.143Z,97667.88
2019-02-19T04:50:47.579Z,97667.34
2019-02-19T04:53:14.973Z,97658.11
2019-02-19T04:55:42.396Z,97652.41
2019-02-19T04:58:09.831Z,97658.14
2019-02-19T05:00:37.282Z,97662.08
2019-02-19T05:03:04.733Z,97652.70
2019-02-19T05:05:32.208Z,97651.52
2019-02-19T05:07:59.599Z,97656.41
2019-02-19T05:10:27.123Z,97645.39
2019-02-19T05:12:54.544Z,97663.05
2019-02-19T05:15:21.931Z,97659.15
2019-02-19T05:17:49.972Z,97656.88
2019-02-19T05:20:17.367Z,97664.06
2019-02-19T05:22:44.771Z,97663.85
2019-02-19T05:25:12.271Z,97663.88
2019-02-19T05:27:39.704Z,97659.29
2019-02-19T05:30:07.183Z,97660.37
2019-02-19T05:32:34.793Z,97666.97
2019-02-19T05:35:02.293Z,97664.55
2019-02-19T05:37:29.838Z,97665.57
2019-02-19T05:39:57.229Z,97652.77
2019-02-19T05:42:24.634Z,97651.64
2019-02-19T05:44:52.797Z,97661.67
2019-02-19T05:47:20.405Z,97659.57
2019-02-19T05:49:47.855Z,97669.88
2019-02-19T05:52:15.827Z,97667.20
2019-02-19T05:54:43.225Z,97661.73
2019-02-19T05:57:10.665Z,97656.93
2019-02-19T05:59:38.108Z,97659.80
2019-02-19T06:02:05.534Z,97664.92
2019-02-19T06:04:32.929Z,97664.05
2019-02-19T06:07:00.371Z,97666.39
2019-02-19T06:09:28.012Z,97665.81
2019-02-19T06:11:55.444Z,97671.03
2019-02-19T06:14:22.854Z,97675.02
2019-02-19T06:16:58.089Z,97674.66
2019-02-19T06:19:17.663Z,97676.84
2019-02-19T06:21:45.063Z,97679.04
2019-02-19T06:24:12.790Z,97677.23
2019-02-19T06:26:40.348Z,97674.05
2019-02-19T06:29:07.821Z,97678.72
2019-02-19T06:31:35.214Z,97678.39
2019-02-19T06:34:02.651Z,97674.98
2019-02-19T06:36:30.888Z,97687.44
2019-02-19T06:38:58.541Z,97692.59
2019-02-19T06:41:25.982Z,97691.69
2019-02-19T06:43:53.387Z,97695.26
2019-02-19T06:46:20.840Z,97705.14
2019-02-19T06:48:48.268Z,97703.69
2019-02-19T06:51:15.678Z,97708.30
2019-02-19T06:53:43.094Z,97707.78
2019-02-19T06:56:10.529Z,97701.24
2019-02-19T06:58:37.993Z,97705.41
2019-02-19T07:01:05.394Z,97708.82
2019-02-19T07:03:38.548Z,97706.94
2019-02-19T07:06:06.788Z,97708.46
2019-02-19T07:08:34.304Z,97707.75
2019-02-19T07:11:01.783Z,97706.67
2019-02-19T07:13:29.194Z,97715.19
2019-02-19T07:15:56.647Z,97713.15
2019-02-19T07:18:24.816Z,97710.48
2019-02-19T07:20:52.251Z,97712.84
2019-02-19T07:23:19.696Z,97715.43
2019-02-19T07:25:47.297Z,97712.16
2019-02-19T07:28:14.857Z,97721.41
2019-02-19T07:30:42.260Z,97723.41
2019-02-19T07:33:09.854Z,97722.05
2019-02-19T07:35:37.292Z,97733.45
2019-02-19T07:38:04.747Z,97726.98
2019-02-19T07:40:32.201Z,97725.84
2019-02-19T07:42:59.720Z,97725.45
2019-02-19T07:45:27.154Z,97726.95
2019-02-19T07:47:54.560Z,97733.47
2019-02-19T07:50:21.976Z,97733.83
2019-02-19T07:52:49.574Z,97738.47
2019-02-19T07:55:17.058Z,97739.29
2019-02-19T07:57:44.458Z,97733.08
2019-02-19T08:00:11.897Z,97735.53
2019-02-19T08:02:39.328Z,97739.14
2019-02-19T08:05:06.786Z,97733.27
2019-02-19T08:07:34.305Z,97735.72
2019-02-19T08:10:01.765Z,97738.16
2019-02-19T08:12:29.172Z,97741.48
2019-02-19T08:14:56.579Z,97747.34
2019-02-19T08:17:24.032Z,97746.59
2019-02-19T08:19:51.468Z,97742.34
2019-02-19T08:22:18.864Z,97736.90
2019-02-19T08:24:46.488Z,97735.92
2019-02-19T08:27:13.931Z,97736.05
2019-02-19T08:29:41.327Z,97737.47
2019-02-19T08:32:08.805Z,97735.76
2019-02-19T08:34:37.962Z,97737.44
2019-02-19T08:37:05.351Z,97738.55
2019-02-19T08:39:32.771Z,97738.05
2019-02-19T08:42:00.181Z,97735.80
2019-02-19T08:44:28.094Z,97739.73
2019-02-19T08:46:55.606Z,97744.44
2019-02-19T08:49:23.032Z,97734.73
2019-02-19T08:51:56.106Z,97737.36
2019-02-19T08:54:19.240Z,97734.80
2019-02-19T08:56:46.753Z,97738.72
2019-02-19T08:59:15.098Z,97738.15
2019-02-19T09:01:42.501Z,97739.86
2019-02-19T09:04:09.912Z,97737.73
2019-02-19T09:06:37.343Z,97744.23
2019-02-19T09:09:04.790Z,97736.67
2019-02-19T09:11:32.269Z,97746.63
2019-02-19T09:13:59.735Z,97739.51
2019-02-19T09:16:27.250Z,97741.27
2019-02-19T09:18:54.700Z,97738.11
2019-02-19T09:21:22.383Z,97745.76
2019-02-19T09:23:50.570Z,97739.18
2019-02-19T09:26:17.990Z,97731.35
2019-02-19T09:28:45.399Z,97733.40
2019-02-19T09:31:12.840Z,97734.22
2019-02-19T09:33:40.952Z,97728.42
2019-02-19T09:36:08.389Z,97728.76
2019-02-19T09:38:35.791Z,97728.48
2019-02-19T09:41:03.394Z,97730.09
2019-02-19T09:43:35.538Z,97727.59
2019-02-19T09:45:59.062Z,97727.92
2019-02-19T09:48:26.180Z,97728.09
2019-02-19T09:50:53.590Z,97726.23
2019-02-19T09:53:21.035Z,97726.28
2019-02-19T09:55:48.650Z,97723.71
2019-02-19T09:58:16.964Z,97731.16
2019-02-19T10:00:44.395Z,97726.33
2019-02-19T10:03:11.963Z,97725.34
2019-02-19T10:05:39.395Z,97720.11
2019-02-19T10:08:06.852Z,97719.17
2019-02-19T10:10:34.341Z,97715.47
2019-02-19T10:13:01.792Z,97716.16
2019-02-19T10:15:29.225Z,97716.48
2019-02-19T10:17:56.630Z,97720.52
2019-02-19T10:20:24.224Z,97720.71
2019-02-19T10:22:51.683Z,97722.92
2019-02-19T10:25:19.111Z,97720.52
2019-02-19T10:27:46.497Z,97727.71
2019-02-19T10:30:17.548Z,97726.95
2019-02-19T10:32:45.035Z,97723.84
2019-02-19T10:35:12.533Z,97723.34
2019-02-19T10:37:39.951Z,97727.66
2019-02-19T10:40:09.846Z,97729.03
2019-02-19T10:42:37.508Z,97727.23
2019-02-19T10:45:04.926Z,97728.75
2019-02-19T10:47:32.885Z,97731.90
2019-02-19T10:50:00.389Z,97724.31
2019-02-19T10:52:27.832Z,97722.64
2019-02-19T10:54:55.247Z,97719.83
2019-02-19T10:57:22.651Z,97725.36
2019-02-19T10:59:50.116Z,97723.53
2019-02-19T11:02:17.900Z,97719.17
2019-02-19T11:04:45.352Z,97710.53
2019-02-19T11:07:12.807Z,97712.34
2019-02-19T11:09:40.252Z,97710.51
2019-02-19T11:12:07.825Z,97715.73
2019-02-19T11:14:35.353Z,97709.14
2019-02-19T11:17:02.872Z,97702.45
2019-02-19T11:19:29.822Z,97698.05
2019-02-19T11:21:57.267Z,97696.41
2019-02-19T11:24:24.790Z,97699.56
2019-02-19T11:26:51.753Z,97695.17
2019-02-19T11:29:18.694Z,97684.13
2019-02-19T11:31:45.654Z,97683.40
2019-02-19T11:34:13.047Z,97680.48
2019-02-19T11:36:39.986Z,97680.31
2019-02-19T11:39:07.042Z,97679.59
2019-02-19T11:41:34.009Z,97677.02
2019-02-19T11:44:00.945Z,97673.11
2019-02-19T11:46:27.942Z,97669.89
2019-02-19T11:48:56.188Z,97668.02
2019-02-19T11:51:22.018Z,97658.88
2019-02-19T11:53:48.974Z,97653.60
2019-02-19T11:56:16.407Z,97648.22
2019-02-19T11:58:43.798Z,97644.22
2019-02-19T12:01:11.241Z,97643.52
2019-02-19T12:03:38.811Z,97633.83
2019-02-19T12:06:06.455Z,97637.61
2019-02-19T12:08:39.104Z,97627.27
2019-02-19T12:11:01.413Z,97627.28
2019-02-19T12:13:28.848Z,97627.58
2019-02-19T12:15:56.849Z,97624.13
2019-02-19T12:18:24.304Z,97630.27
2019-02-19T12:20:51.757Z,97621.19
2019-02-19T12:23:19.366Z,97616.38
2019-02-19T12:25:46.865Z,97615.25
2019-02-19T12:28:14.312Z,97619.44
2019-02-19T12:30:41.829Z,97617.74
2019-02-19T12:33:09.264Z,97614.11
2019-02-19T12:35:36.792Z,97610.87
2019-02-19T12:38:04.404Z,97610.78
2019-02-19T12:40:31.891Z,97604.38
2019-02-19T12:42:59.351Z,97602.23
2019-02-19T12:45:26.783Z,97598.45
2019-02-19T12:47:54.292Z,97601.89
2019-02-19T12:50:21.725Z,97599.30
2019-02-19T12:52:49.379Z,97596.42
2019-02-19T12:55:16.859Z,97597.97
2019-02-19T12:57:44.497Z,97594.43
2019-02-19T13:00:13.695Z,97589.88
2019-02-19T13:02:41.174Z,97585.64
2019-02-19T13:05:08.626Z,97584.64
2019-02-19T13:07:36.966Z,97585.37
2019-02-19T13:10:03.510Z,97581.95
2019-02-19T13:12:30.962Z,97577.77
2019-02-19T13:14:58.426Z,97574.14
2019-02-19T13:17:26.077Z,97572.97
2019-02-19T13:19:53.503Z,97564.16
2019-02-19T13:22:21.126Z,97563.21
2019-02-19T13:24:48.657Z,97553.97
2019-02-19T13:27:16.094Z,97553.03
2019-02-19T13:29:43.507Z,97546.27
2019-02-19T13:32:10.984Z,97553.21
2019-02-19T13:34:38.391Z,97545.27
2019-02-19T13:37:05.344Z,97533.69
2019-02-19T13:39:32.330Z,97537.05
2019-02-19T13:41:59.343Z,97532.49
2019-02-19T13:44:26.404Z,97532.08
2019-02-19T13:46:53.374Z,97529.61
2019-02-19T13:49:20.834Z,97530.27
2019-02-19T13:51:48.350Z,97524.72
2019-02-19T13:54:15.771Z,97520.94
2019-02-19T13:56:43.262Z,97516.64
2019-02-19T13:59:10.670Z,97521.33
2019-02-19T14:01:38.180Z,97527.75
2019-02-19T14:04:05.627Z,97527.09
2019-02-19T14:06:33.097Z,97522.73
2019-02-19T14:09:00.621Z,97523.48
2019-02-19T14:11:28.045Z,97520.72
2019-02-19T14:13:56.053Z,97519.81
2019-02-19T14:16:23.815Z,97524.45
2019-02-19T14:18:52.968Z,97523.36
2019-02-19T14:21:28.914Z,97522.55
2019-02-19T14:24:01.996Z,97515.94
2019-02-19T14:26:30.259Z,97510.78
2019-02-19T14:29:01.663Z,97519.81
2019-02-19T14:31:29.113Z,97521.45
2019-02-19T14:34:02.021Z,97513.84
2019-02-19T14:36:48.264Z,97507.36
2019-02-19T14:42:27.517Z,97512.65
2019-02-19T14:44:55.777Z,97510.78
2019-02-19T14:47:28.238Z,97509.79
2019-02-19T14:49:57.678Z,97498.94
2019-02-19T14:52:25.211Z,97501.79
2019-02-19T14:57:50.648Z,97499.98
2019-02-19T15:03:29.067Z,97498.44
2019-02-19T15:06:03.990Z,97504.42
2019-02-19T15:08:39.873Z,97498.19
2019-02-19T15:11:09.734Z,97493.77
2019-02-19T15:13:41.591Z,97492.98
2019-02-19T15:19:20.032Z,97494.09
2019-02-19T15:21:51.594Z,97488.94
2019-02-19T15:24:24.684Z,97484.39
2019-02-19T15:29:55.931Z,97483.98
2019-02-19T15:32:23.382Z,97476.81
2019-02-19T15:35:05.853Z,97474.53
2019-02-19T15:37:39.809Z,97472.98
2019-02-19T15:43:04.776Z,97469.55
2019-02-19T15:45:37.878Z,97467.05
2019-02-19T15:48:11.637Z,97464.52
2019-02-19T15:50:44.803Z,97466.52
2019-02-19T15:53:17.864Z,97463.92
2019-02-19T15:55:48.956Z,97463.17
2019-02-19T16:01:14.497Z,97467.94
2019-02-19T16:03:42.497Z,97468.33
2019-02-19T16:09:06.036Z,97465.59
2019-02-19T16:11:34.002Z,97460.02
2019-02-19T16:14:07.882Z,97463.70
2019-02-19T16:16:38.280Z,97473.66
2019-02-19T16:19:08.159Z,97462.29
2019-02-19T16:21:39.538Z,97464.39
2019-02-19T16:24:07.840Z,97462.98
2019-02-19T16:26:50.785Z,97461.83
2019-02-19T16:29:31.017Z,97460.61
2019-02-19T16:35:00.353Z,97457.66
2019-02-19T16:37:33.318Z,97458.55
2019-02-19T16:40:02.905Z,97466.78
2019-02-19T16:42:30.587Z,97462.51
2019-02-19T16:45:03.655Z,97467.16
2019-02-19T16:47:33.112Z,97471.18
2019-02-19T16:50:15.674Z,97475.61
2019-02-19T16:52:43.913Z,97484.24
2019-02-19T16:55:11.775Z,97480.39
2019-02-19T16:57:51.939Z,97484.08
2019-02-19T17:00:21.858Z,97486.83
2019-02-19T17:02:59.216Z,97487.38
2019-02-19T17:05:28.495Z,97488.97
2019-02-19T17:07:57.284Z,97484.88
2019-02-19T17:13:22.494Z,97491.13
2019-02-19T17:15:49.902Z,97492.66
2019-02-19T17:18:23.055Z,97493.61
2019-02-19T17:20:49.594Z,97491.81
2019-02-19T17:23:21.491Z,97488.59
2019-02-19T17:25:52.447Z,97494.92
2019-02-19T17:28:22.949Z,97494.52
2019-02-19T17:30:53.963Z,97499.17
2019-02-19T17:33:24.262Z,97501.59
2019-02-19T17:35:54.231Z,97504.66
2019-02-19T17:38:22.486Z,97509.50
2019-02-19T17:40:51.293Z,97508.97
2019-02-19T17:43:21.852Z,97515.01
2019-02-19T17:45:59.995Z,97519.42
2019-02-19T17:48:31.157Z,97521.23
2019-02-19T17:51:17.368Z,97523.98
2019-02-19T17:56:39.331Z,97522.39
2019-02-19T17:59:13.318Z,97528.77
2019-02-19T18:01:46.430Z,97531.73
2019-02-19T18:04:29.531Z,97542.73
2019-02-19T18:07:16.882Z,97546.28
2019-02-19T18:09:48.373Z,97544.72
2019-02-19T18:12:20.407Z,97553.89
2019-02-19T18:14:48.708Z,97559.53
2019-02-19T18:17:27.813Z,97563.03
2019-02-19T18:19:55.335Z,97563.70
2019-02-19T18:22:22.782Z,97561.68
2019-02-19T18:24:50.244Z,97568.89
2019-02-19T18:27:17.765Z,97567.58
2019-02-19T18:29:45.223Z,97572.03
2019-02-19T18:32:12.799Z,97571.23
2019-02-19T18:34:40.229Z,97571.05
2019-02-19T18:37:07.735Z,97566.80
2019-02-19T18:39:35.138Z,97571.09
2019-02-19T18:42:02.577Z,97574.11
2019-02-19T18:44:29.954Z,97573.38
2019-02-19T18:46:57.379Z,97578.50
2019-02-19T18:49:24.815Z,97579.53
2019-02-19T18:51:52.274Z,97579.89
2019-02-19T18:54:19.733Z,97577.75
2019-02-19T18:56:47.139Z,97581.41
2019-02-19T18:59:14.530Z,97584.80
2019-02-19T19:01:42.012Z,97583.76
2019-02-19T19:04:09.611Z,97590.29
2019-02-19T19:06:37.050Z,97591.44
2019-02-19T19:09:04.485Z,97595.84
2019-02-19T19:11:31.911Z,97593.06
2019-02-19T19:13:59.311Z,97590.90
2019-02-19T19:16:26.734Z,97584.37
2019-02-19T19:18:54.114Z,97586.50
2019-02-19T19:21:21.532Z,97594.83
2019-02-19T19:23:48.934Z,97586.64
2019-02-19T19:26:16.394Z,97588.72
2019-02-19T19:28:43.763Z,97593.19
2019-02-19T19:31:11.168Z,97599.66
2019-02-19T19:33:38.580Z,97599.08
2019-02-19T19:36:06.026Z,97593.19
2019-02-19T19:38:33.415Z,97608.81
2019-02-19T19:41:00.824Z,97603.38
2019-02-19T19:43:28.367Z,97605.86
2019-02-19T19:45:55.777Z,97609.92
2019-02-19T19:48:23.354Z,97605.95
2019-02-19T19:50:50.841Z,97609.53
2019-02-19T19:53:18.299Z,97607.64
2019-02-19T19:55:45.820Z,97608.70
2019-02-19T19:58:13.423Z,97612.70
2019-02-19T20:00:40.860Z,97615.42
2019-02-19T20:03:08.287Z,97621.27
2019-02-19T20:05:36.459Z,97621.14
2019-02-19T20:08:03.975Z,97617.94
2019-02-19T20:10:32.536Z,97626.42
2019-02-19T20:12:58.941Z,97622.98
2019-02-19T20:15:26.437Z,97625.59
2019-02-19T20:17:53.898Z,97619.42
2019-02-19T20:20:21.356Z,97621.08
2019-02-19T20:22:48.780Z,97617.11
2019-02-19T20:25:16.184Z,97622.20
2019-02-19T20:27:43.583Z,97628.02
2019-02-19T20:30:11.040Z,97638.00
2019-02-19T20:32:38.799Z,97635.52
2019-02-19T20:35:06.305Z,97630.27
2019-02-19T20:37:33.725Z,97634.80
2019-02-19T20:40:01.145Z,97633.02
2019-02-19T20:42:28.542Z,97636.95
2019-02-19T20:44:55.961Z,97643.33
2019-02-19T20:47:23.391Z,97644.85
2019-02-19T20:49:50.783Z,97645.73
2019-02-19T20:52:18.190Z,97649.19
2019-02-19T20:54:45.628Z,97650.55
2019-02-19T20:57:13.204Z,97650.55
2019-02-19T20:59:40.624Z,97647.69
2019-02-19T21:02:08.152Z,97652.44
2019-02-19T21:04:35.554Z,97652.75
2019-02-19T21:07:03.007Z,97654.59
2019-02-19T21:09:30.444Z,97664.41
2019-02-19T21:11:57.900Z,97661.95
2019-02-19T21:14:25.487Z,97664.00
2019-02-19T21:16:52.905Z,97668.13
2019-02-19T21:19:20.324Z,97662.31
2019-02-19T21:21:47.722Z,97669.16
2019-02-19T21:24:15.135Z,97660.37
2019-02-19T21:26:42.533Z,97659.61
2019-02-19T21:29:09.943Z,97667.11
2019-02-19T21:31:37.960Z,97667.31
2019-02-19T21:34:05.433Z,97669.14
2019-02-19T21:36:32.843Z,97664.65
2019-02-19T21:39:00.247Z,97664.06
2019-02-19T21:41:27.705Z,97668.13
2019-02-19T21:43:55.115Z,97669.48
2019-02-19T21:46:22.548Z,97662.48
2019-02-19T21:48:49.951Z,97672.61
2019-02-19T21:51:17.420Z,97672.59
2019-02-19T21:53:44.956Z,97677.17
2019-02-19T21:56:12.820Z,97672.36
2019-02-19T21:58:40.305Z,97669.26
2019-02-19T22:01:07.950Z,97671.39
2019-02-19T22:03:35.499Z,97673.11
2019-02-19T22:06:02.941Z,97672.00
2019-02-19T22:08:30.369Z,97670.47
2019-02-19T22:10:57.861Z,97670.38
2019-02-19T22:13:25.416Z,97676.07
2019-02-19T22:15:52.898Z,97675.94
2019-02-19T22:18:20.311Z,97679.02
2019-02-19T22:20:48.614Z,97680.88
2019-02-19T22:23:16.023Z,97680.14
2019-02-19T22:25:43.423Z,97677.24
2019-02-19T22:28:10.881Z,97675.84
2019-02-19T22:30:38.284Z,97675.95
2019-02-19T22:33:05.689Z,97673.84
2019-02-19T22:35:33.113Z,97671.25
2019-02-19T22:38:00.538Z,97677.24
2019-02-19T22:40:28.015Z,97678.31
2019-02-19T22:42:55.470Z,97670.38
2019-02-19T22:45:22.997Z,97677.27
2019-02-19T22:47:53.358Z,97671.36
2019-02-19T22:50:17.813Z,97684.10
2019-02-19T22:52:45.243Z,97682.05
2019-02-19T22:55:14.169Z,97694.58
2019-02-19T22:57:41.578Z,97690.30
2019-02-19T23:00:15.734Z,97686.47
2019-02-19T23:02:43.376Z,97687.05
2019-02-19T23:05:10.807Z,97683.45
2019-02-19T23:07:38.416Z,97688.06
2019-02-19T23:10:05.824Z,97688.65
2019-02-19T23:12:33.219Z,97688.05
2019-02-19T23:15:00.636Z,97687.16
2019-02-19T23:17:28.090Z,97691.48
2019-02-19T23:19:55.653Z,97692.04
2019-02-19T23:22:23.177Z,97698.17
2019-02-19T23:24:50.594Z,97693.09
2019-02-19T23:27:18.018Z,97694.83
2019-02-19T23:29:45.462Z,97697.02
2019-02-19T23:32:12.921Z,97699.78
2019-02-19T23:34:41.333Z,97701.64
2019-02-19T23:37:08.773Z,97700.80
2019-02-19T23:39:43.393Z,97706.81
2019-02-19T23:42:03.919Z,97701.97
2019-02-19T23:44:31.376Z,97709.02
2019-02-19T23:46:58.840Z,97713.27
2019-02-19T23:49:26.256Z,97710.03
2019-02-19T23:51:53.653Z,97713.18
2019-02-19T23:54:21.148Z,97718.77
2019-02-19T23:56:49.050Z,97718.14
2019-02-19T23:59:16.570Z,97715.66
